Disclaimer

Please do not use the information listed here in-flight or in-navigation, as they are not provided to us by the airports but are provided by volunteers, so they might be outdated.

Search


Regions


Airport information page

Radio informations:
CIENFUEGOS TWR - 118.9 MHz
CIENFUEGOS RDO - 3407 MHz

Airport informations:
Latitude: 22° 09' 00.00" N
Longitude: 080° 24' 51.00" W
Elevation: 102 feet - 31 meters
Operating hours: Remarks
Operating agency: Military-civil joint use airport
Timezone: UTC-5(-4DT) - Last Sunday in March to last Sunday in October
Fuel: Jet A1, without icing nhibitor.

Aviation Gasoline (AVGAS), octane unknown.

Runway information:
02/20 - 7874 x 148 feet< - >2400 x 45 meters

Recent METARs:
MUCF 131352Z VRB02KT 9000 FEW020 28/24 Q1017
MUCF 131352Z VRB02KT 9000 FEW020 28/24 Q1017
MUCF 131453Z VRB02KT 9999 FEW020 30/23 Q1017

Airport on the map: